Aviation Digital Data Service (ADDS)

Output produced by METARs form (1119 UTC 22 December 2014)
found at http://aviationweather.gov/adds/metars/
 
KSSI 221021Z 2210/2306 01006KT 6SM SHRA BR OVC003 
     FM221800 06006KT 6SM SHRA BR OVC005 
     FM230000 09005KT 4SM BR VCSH OVC003